Wilson Mersin — P3PA6 — position and weather

sailwx.info

Track history (hours):
 
Tides and Currents Weather Stations Pressure Air Temp Water Temp Dewpoint Dewpoint Depression Visibility Wind Speed Wind Dir Waves Ship Positions

Wilson Mersin

Last reported at 2015-Mar-03 01:28 UTC. Time now 2015-Mar-04 02:55 UTC.
Position N 49°32' W 000°17'.

Length 107 m; draft 6.9 m.

Type: Cargo ship. MMSI: 210072000.

Date/timePositionNaut miles runAvg speedWind from/ knotsBaromVisibWave heightAir tempDewpointWater temp
2015-Mar-03 01:28N 49°32' W 000°17'1112.3
2015-Mar-03 00:34N 49°28' W 000°01'1212.4
2015-Mar-02 23:33N 49°26' E 000°18'1210.1
2015-Mar-02 22:20N 49°26' E 000°37'  
2015-Feb-28 15:29N 49°29' E 000°32'1111.6
2015-Feb-28 14:33N 49°26' E 000°16'1212.0
2015-Feb-28 13:33N 49°28' W 000°02'1010.4
2015-Feb-28 12:33N 49°32' W 000°17'  
2015-Feb-25 03:18N 53°44' W 006°15'3 0.3
2015-Feb-24 19:14N 53°44' W 006°11'0 0.0
2015-Feb-24 18:31N 53°44' W 006°11'0 0.0
2015-Feb-24 17:31N 53°44' W 006°11'4310.6
2015-Feb-24 13:29N 54°16' W 005°23'1212.9
2015-Feb-24 12:33N 54°28' W 005°17'1514.7
2015-Feb-24 11:33N 54°42' W 005°24'1615.3
2015-Feb-24 10:29N 54°56' W 005°39'18710.4
2015-Feb-23 16:30N 58°02' W 006°10'1112.0
2015-Feb-23 15:33N 58°10' W 005°55'1211.8
2015-Feb-23 14:33N 58°19' W 005°39'4210.4
2015-Feb-23 10:31N 58°42' W 004°32'1111.3
2015-Feb-23 09:33N 58°42' W 004°11'1110.7
2015-Feb-23 08:33N 58°43' W 003°51'1211.7
2015-Feb-23 07:33N 58°43' W 003°28'1414.3
2015-Feb-23 06:33N 58°43' W 003°00'42611.4
2015-Feb-21 17:13N 57°49' E 010°24'811.6
2015-Feb-21 16:30N 57°49' E 010°39'7 6.9
2015-Feb-21 15:33N 57°42' E 010°41'3 1.0
2015-Feb-21 12:15N 57°39' E 010°42'811.8
2015-Feb-21 11:33N 57°35' E 010°56'1212.0
2015-Feb-21 10:33N 57°31' E 011°16'1111.1
2015-Feb-21 09:33N 57°22' E 011°30'1211.2
2015-Feb-21 08:32N 57°11' E 011°37'1111.1
2015-Feb-21 07:32N 57°01' E 011°44'1111.1
2015-Feb-21 06:33N 56°51' E 011°50'1110.8
2015-Feb-21 05:33N 56°40' E 011°56'1211.1
2015-Feb-21 04:30N 56°29' E 012°03'2811.8
2015-Feb-21 02:06N 56°07' E 012°34'611.3
2015-Feb-21 01:33N 56°02' E 012°40'  
Track history (hours):
 
Tides and Currents Weather Stations Pressure Air Temp Water Temp Dewpoint Dewpoint Depression Visibility Wind Speed Wind Dir Waves Ship Positions

Wilson Mersin

Last reported at 2015-Mar-03 01:28 UTC. Time now 2015-Mar-04 02:55 UTC.
Position N 49°32' W 000°17'.

Length 107 m; draft 6.9 m.

Type: Cargo ship. MMSI: 210072000.

Date/timePositionNaut miles runAvg speedWind from/ knotsBaromVisibWave heightAir tempDewpointWater temp
2015-Mar-03 01:28N 49°32' W 000°17'1112.3
2015-Mar-03 00:34N 49°28' W 000°01'1212.4
2015-Mar-02 23:33N 49°26' E 000°18'1210.1
2015-Mar-02 22:20N 49°26' E 000°37'  
2015-Feb-28 15:29N 49°29' E 000°32'1111.6
2015-Feb-28 14:33N 49°26' E 000°16'1212.0
2015-Feb-28 13:33N 49°28' W 000°02'1010.4
2015-Feb-28 12:33N 49°32' W 000°17'  
2015-Feb-25 03:18N 53°44' W 006°15'3 0.3
2015-Feb-24 19:14N 53°44' W 006°11'0 0.0
2015-Feb-24 18:31N 53°44' W 006°11'0 0.0
2015-Feb-24 17:31N 53°44' W 006°11'4310.6
2015-Feb-24 13:29N 54°16' W 005°23'1212.9
2015-Feb-24 12:33N 54°28' W 005°17'1514.7
2015-Feb-24 11:33N 54°42' W 005°24'1615.3
2015-Feb-24 10:29N 54°56' W 005°39'18710.4
2015-Feb-23 16:30N 58°02' W 006°10'1112.0
2015-Feb-23 15:33N 58°10' W 005°55'1211.8
2015-Feb-23 14:33N 58°19' W 005°39'4210.4
2015-Feb-23 10:31N 58°42' W 004°32'1111.3
2015-Feb-23 09:33N 58°42' W 004°11'1110.7
2015-Feb-23 08:33N 58°43' W 003°51'1211.7
2015-Feb-23 07:33N 58°43' W 003°28'1414.3
2015-Feb-23 06:33N 58°43' W 003°00'42611.4
2015-Feb-21 17:13N 57°49' E 010°24'811.6
2015-Feb-21 16:30N 57°49' E 010°39'7 6.9
2015-Feb-21 15:33N 57°42' E 010°41'3 1.0
2015-Feb-21 12:15N 57°39' E 010°42'811.8
2015-Feb-21 11:33N 57°35' E 010°56'1212.0
2015-Feb-21 10:33N 57°31' E 011°16'1111.1
2015-Feb-21 09:33N 57°22' E 011°30'1211.2
2015-Feb-21 08:32N 57°11' E 011°37'1111.1
2015-Feb-21 07:32N 57°01' E 011°44'1111.1
2015-Feb-21 06:33N 56°51' E 011°50'1110.8
2015-Feb-21 05:33N 56°40' E 011°56'1211.1
2015-Feb-21 04:30N 56°29' E 012°03'2811.8
2015-Feb-21 02:06N 56°07' E 012°34'611.3
2015-Feb-21 01:33N 56°02' E 012°40'  

Dump ship's entire track history